Tulnici, România

11:33 AM EEST on august 03, 2015 (GMT +0300)
Bacau | | Change Station
CLOSE
Current Station
Aeroport
Location: Bacau,
Elevation: 607 ft
Nearby Weather Stations

Elev 607 ft 46.52 °N, 26.91 °E | Updated 33 minutes ago

Clear
Cer senin
79 °F
Feels Like 79 °F
N
1
Vânt variabil Vânt from variabil

astăzi
High -- | Low -- °F
--% Chance of Precip.
Ieri
High -- | Low -- °F
Precip. -- inch
5:57 AM 8:40 PM
Lună în descreştere, 88% visible
Presiunea 30.18 inch
Vizibilitatea -9999.0 mile
Nori
Punctul de rouă 59 °F
Umiditatea 51%
Precipitaţii 0.00 inch
Adâncimea zăpezii Not available.
UV Not available.
Pollen Not available.
Calitatea aerului Not available.
Flu Activity Not available.
METAR LRBC 030800Z VRB01KT CAVOK 26/15 Q1022

More Conditions Fewer Conditions

Presiunea 30.18 inch
Vizibilitatea -9999.0 mile
Nori
Punctul de rouă 59 °F
Umiditatea 51%
Precipitaţii 0.00 inch
Adâncimea zăpezii Not available.
UV Not available.
Pollen Not available.
Calitatea aerului Not available.
Flu Activity Not available.
METAR LRBC 030800Z VRB01KT CAVOK 26/15 Q1022

More Conditions Fewer Conditions

10-Day Weather Forecast

×

Almanac

Astronomie

Aug. 03, 2015 Răsărit Apus
Timpul Actual
Crepusculul Civil
Crepusculul nautic
Răsărit Astronomic
Luna
Durata zilei lumină
Lungimea zilei
Tomorrow will be .
, % of the Moon is Illuminated

Extremele de azi

Country Highs Country Lows

Community

WunderPhotos

Upload Photos

1,843,592 photos uploaded!

WunderBlogs® & News

Nearby

Calitatea aerului

  Calitatea aerului Index de calitate a aerului Poluat
Not available.

Adâncimea zapezii

Station Depth Elevation

Earthquake Activity

Oraş Distance Mag. Time & Date
Minimum magnitude displayed is 2.5.

Coastal Water Temperatures

Locul Temperatura

Stations

Nearby Weather Stations

Locaţia staţiei Temp Vânt rece Punctul de rouă Umiditatea Vânt Precip. Elev Actualizare Type